createdAt,value
2022-11-28T00:00:14.128Z,86.58
2022-11-28T00:01:14.125Z,86.96
2022-11-28T00:02:14.223Z,86.44
2022-11-28T00:03:14.200Z,86.89
2022-11-28T00:04:14.100Z,86.89
2022-11-28T00:05:14.092Z,86.99
2022-11-28T00:06:14.171Z,86.79
2022-11-28T00:07:14.118Z,86.47
2022-11-28T00:08:14.074Z,86.58
2022-11-28T00:09:14.052Z,86.58
2022-11-28T00:10:14.052Z,86.58
2022-11-28T00:11:14.051Z,86.58
2022-11-28T00:12:14.060Z,86.68
2022-11-28T00:13:14.032Z,86.68
2022-11-28T00:14:14.024Z,86.79
2022-11-28T00:15:14.016Z,86.89
2022-11-28T00:16:14.058Z,86.79
2022-11-28T00:17:14.022Z,86.68
2022-11-28T00:18:13.999Z,86.47
2022-11-28T00:19:13.992Z,87.10
2022-11-28T00:20:13.983Z,86.68
2022-11-28T00:21:13.977Z,86.68
2022-11-28T00:22:14.067Z,86.79
2022-11-28T00:23:13.968Z,86.89
2022-11-28T00:24:13.976Z,86.89
2022-11-28T00:25:13.952Z,86.68
2022-11-28T00:26:13.952Z,87.20
2022-11-28T00:27:13.951Z,87.10
2022-11-28T00:28:13.934Z,87.82
2022-11-28T00:29:13.923Z,87.82
2022-11-28T00:30:13.924Z,87.62
2022-11-28T00:31:14.014Z,87.82
2022-11-28T00:32:13.986Z,87.20
2022-11-28T00:33:13.896Z,88.13
2022-11-28T00:34:13.896Z,87.41
2022-11-28T00:35:13.885Z,87.41
2022-11-28T00:36:13.900Z,87.30
2022-11-28T00:37:13.876Z,87.72
2022-11-28T00:38:14.413Z,88.24
2022-11-28T00:39:13.863Z,87.82
2022-11-28T00:40:13.854Z,87.30
2022-11-28T00:41:13.857Z,87.51
2022-11-28T00:42:13.868Z,88.39
2022-11-28T00:43:13.836Z,88.03
2022-11-28T00:44:13.824Z,87.93
2022-11-28T00:45:14.695Z,87.72
2022-11-28T00:46:13.936Z,87.62
2022-11-28T00:47:13.815Z,88.03
2022-11-28T00:48:13.810Z,88.03
2022-11-28T00:49:13.815Z,87.30
2022-11-28T00:50:13.791Z,87.62
2022-11-28T00:51:13.784Z,87.51
2022-11-28T00:52:13.796Z,87.82
2022-11-28T00:53:13.797Z,86.89
2022-11-28T00:54:13.868Z,86.89
2022-11-28T00:55:13.773Z,86.99
2022-11-28T00:56:13.753Z,86.96
2022-11-28T00:57:13.736Z,86.75
2022-11-28T00:58:13.744Z,86.75
2022-11-28T00:59:13.748Z,86.96
2022-11-28T01:00:13.732Z,87.06
2022-11-28T01:01:13.839Z,86.85
2022-11-28T01:02:13.779Z,86.44
2022-11-28T01:03:13.703Z,86.13
2022-11-28T01:04:13.700Z,86.47
2022-11-28T01:05:13.700Z,86.65
2022-11-28T01:06:13.684Z,86.17
2022-11-28T01:07:13.729Z,86.07
2022-11-28T01:08:13.685Z,86.17
2022-11-28T01:09:13.671Z,86.58
2022-11-28T01:10:13.756Z,86.47
2022-11-28T01:11:13.660Z,86.07
2022-11-28T01:12:13.644Z,86.37
2022-11-28T01:13:13.655Z,86.37
2022-11-28T01:14:13.643Z,87.04
2022-11-28T01:15:13.624Z,86.47
2022-11-28T01:16:13.653Z,86.68
2022-11-28T01:17:13.625Z,86.93
2022-11-28T01:18:13.620Z,87.04
2022-11-28T01:19:13.595Z,87.10
2022-11-28T01:20:13.596Z,87.20
2022-11-28T01:21:13.583Z,86.83
2022-11-28T01:22:13.596Z,86.37
2022-11-28T01:23:13.588Z,86.37
2022-11-28T01:24:13.562Z,86.79
2022-11-28T01:25:13.557Z,86.58
2022-11-28T01:26:13.641Z,86.37
2022-11-28T01:27:13.588Z,86.68
2022-11-28T01:28:13.537Z,86.58
2022-11-28T01:29:13.547Z,86.68
2022-11-28T01:30:13.523Z,86.47
2022-11-28T01:31:13.607Z,86.58
2022-11-28T01:32:13.515Z,86.79
2022-11-28T01:33:13.508Z,86.27
2022-11-28T01:34:13.536Z,86.68
2022-11-28T01:35:13.489Z,86.68
2022-11-28T01:36:13.485Z,86.99
2022-11-28T01:37:13.484Z,86.47
2022-11-28T01:38:13.472Z,86.68
2022-11-28T01:39:13.479Z,87.24
2022-11-28T01:40:13.525Z,86.99
2022-11-28T01:41:13.451Z,86.89
2022-11-28T01:42:13.532Z,86.07
2022-11-28T01:43:13.443Z,86.58
2022-11-28T01:44:13.427Z,86.68
2022-11-28T01:45:13.420Z,86.68
2022-11-28T01:46:13.526Z,86.17
2022-11-28T01:47:13.465Z,86.27
2022-11-28T01:48:13.400Z,86.27
2022-11-28T01:49:13.396Z,86.27
2022-11-28T01:50:13.403Z,86.27
2022-11-28T01:51:13.379Z,86.07
2022-11-28T01:52:13.371Z,86.27
2022-11-28T01:53:13.379Z,86.27
2022-11-28T01:54:13.359Z,86.17
2022-11-28T01:55:13.357Z,86.07
2022-11-28T01:56:13.344Z,86.17
2022-11-28T01:57:13.340Z,86.17
2022-11-28T01:58:13.436Z,85.86
2022-11-28T01:59:13.344Z,85.86
2022-11-28T02:00:13.343Z,85.75
2022-11-28T02:01:13.408Z,85.65
2022-11-28T02:02:13.411Z,85.86
2022-11-28T02:03:14.169Z,85.44
2022-11-28T02:04:13.292Z,85.55
2022-11-28T02:05:13.322Z,85.44
2022-11-28T02:06:13.320Z,85.55
2022-11-28T02:07:13.329Z,85.65
2022-11-28T02:08:13.285Z,85.75
2022-11-28T02:09:13.255Z,85.65
2022-11-28T02:10:13.255Z,85.44
2022-11-28T02:11:13.241Z,85.92
2022-11-28T02:12:13.240Z,85.96
2022-11-28T02:13:13.244Z,85.40
2022-11-28T02:14:13.321Z,85.03
2022-11-28T02:15:13.224Z,85.13
2022-11-28T02:16:13.259Z,84.92
2022-11-28T02:17:13.232Z,85.30
2022-11-28T02:18:13.237Z,84.58
2022-11-28T02:19:13.212Z,84.92
2022-11-28T02:20:13.187Z,85.13
2022-11-28T02:21:13.216Z,84.92
2022-11-28T02:22:13.191Z,84.82
2022-11-28T02:23:13.171Z,84.88
2022-11-28T02:24:13.176Z,85.34
2022-11-28T02:25:13.168Z,85.44
2022-11-28T02:26:13.151Z,85.13
2022-11-28T02:27:13.144Z,85.65
2022-11-28T02:28:13.143Z,85.13
2022-11-28T02:29:13.133Z,85.44
2022-11-28T02:30:13.244Z,85.44
2022-11-28T02:31:13.198Z,85.24
2022-11-28T02:32:13.111Z,85.24
2022-11-28T02:33:13.105Z,85.34
2022-11-28T02:34:13.098Z,85.24
2022-11-28T02:35:13.166Z,85.34
2022-11-28T02:36:13.079Z,85.55
2022-11-28T02:37:13.071Z,85.55
2022-11-28T02:38:13.075Z,85.34
2022-11-28T02:39:13.059Z,85.55
2022-11-28T02:40:13.070Z,85.44
2022-11-28T02:41:13.060Z,85.86
2022-11-28T02:42:13.051Z,85.44
2022-11-28T02:43:13.047Z,85.65
2022-11-28T02:44:13.031Z,85.75
2022-11-28T02:45:13.007Z,86.07
2022-11-28T02:46:13.307Z,86.07
2022-11-28T02:47:13.091Z,86.07
2022-11-28T02:48:13.007Z,86.27
2022-11-28T02:49:12.986Z,86.07
2022-11-28T02:50:12.995Z,86.17
2022-11-28T02:51:12.967Z,86.07
2022-11-28T02:52:12.966Z,86.17
2022-11-28T02:53:12.963Z,85.55
2022-11-28T02:54:12.964Z,85.86
2022-11-28T02:55:12.947Z,85.96
2022-11-28T02:56:12.946Z,85.65
2022-11-28T02:57:12.940Z,85.75
2022-11-28T02:58:12.919Z,85.96
2022-11-28T02:59:12.940Z,85.96
2022-11-28T03:00:17.667Z,85.65
2022-11-28T03:01:14.981Z,86.07
2022-11-28T03:02:13.051Z,86.07
2022-11-28T03:03:12.899Z,86.17
2022-11-28T03:04:12.885Z,86.17
2022-11-28T03:05:12.904Z,86.17
2022-11-28T03:06:12.870Z,86.17
2022-11-28T03:07:12.882Z,85.86
2022-11-28T03:08:12.864Z,86.21
2022-11-28T03:09:12.860Z,86.07
2022-11-28T03:10:12.862Z,86.17
2022-11-28T03:11:12.840Z,86.17
2022-11-28T03:12:12.835Z,86.21
2022-11-28T03:13:12.820Z,85.65
2022-11-28T03:14:12.824Z,85.75
2022-11-28T03:15:12.814Z,85.96
2022-11-28T03:16:12.911Z,85.86
2022-11-28T03:17:12.805Z,85.86
2022-11-28T03:18:12.886Z,85.44
2022-11-28T03:19:12.778Z,85.65
2022-11-28T03:20:12.798Z,85.75
2022-11-28T03:21:12.775Z,85.75
2022-11-28T03:22:12.770Z,85.65
2022-11-28T03:23:12.758Z,86.07
2022-11-28T03:24:12.756Z,86.17
2022-11-28T03:25:12.771Z,86.17
2022-11-28T03:26:12.743Z,86.07
2022-11-28T03:27:13.647Z,86.17
2022-11-28T03:28:12.730Z,86.07
2022-11-28T03:29:12.712Z,86.27
2022-11-28T03:30:12.717Z,85.96
2022-11-28T03:31:12.765Z,86.17
2022-11-28T03:32:12.706Z,85.86
2022-11-28T03:33:12.690Z,85.96
2022-11-28T03:34:12.778Z,86.47
2022-11-28T03:35:12.688Z,86.37
2022-11-28T03:36:12.667Z,85.86
2022-11-28T03:37:12.674Z,86.17
2022-11-28T03:38:12.679Z,85.75
2022-11-28T03:39:12.653Z,86.27
2022-11-28T03:40:12.646Z,85.65
2022-11-28T03:41:12.631Z,86.17
2022-11-28T03:42:12.635Z,86.27
2022-11-28T03:43:12.634Z,86.17
2022-11-28T03:44:12.617Z,86.27
2022-11-28T03:45:12.611Z,86.17
2022-11-28T03:46:12.615Z,86.37
2022-11-28T03:47:12.646Z,86.37
2022-11-28T03:48:12.586Z,86.07
2022-11-28T03:49:12.586Z,86.68
2022-11-28T03:50:12.685Z,86.79
2022-11-28T03:51:12.572Z,86.79
2022-11-28T03:52:12.559Z,86.47
2022-11-28T03:53:12.543Z,86.47
2022-11-28T03:54:12.546Z,86.68
2022-11-28T03:55:12.574Z,86.68
2022-11-28T03:56:12.665Z,86.58
2022-11-28T03:57:12.537Z,86.68
2022-11-28T03:58:12.510Z,86.89
2022-11-28T03:59:12.506Z,86.68
2022-11-28T04:00:12.506Z,86.37
2022-11-28T04:01:12.616Z,86.27
2022-11-28T04:02:12.491Z,86.37
2022-11-28T04:03:12.561Z,86.41
2022-11-28T04:04:12.486Z,86.37
2022-11-28T04:05:12.470Z,86.37
2022-11-28T04:06:12.569Z,86.37
2022-11-28T04:07:12.602Z,86.27
2022-11-28T04:08:12.454Z,86.17
2022-11-28T04:09:14.517Z,85.96
2022-11-28T04:10:13.437Z,85.75
2022-11-28T04:11:12.438Z,85.75
2022-11-28T04:12:12.423Z,85.55
2022-11-28T04:13:12.417Z,85.75
2022-11-28T04:14:12.419Z,85.96
2022-11-28T04:15:12.479Z,86.17
2022-11-28T04:16:12.454Z,85.75
2022-11-28T04:17:12.386Z,85.55
2022-11-28T04:18:12.381Z,85.75
2022-11-28T04:19:12.377Z,85.86
2022-11-28T04:20:12.387Z,85.75
2022-11-28T04:21:12.360Z,85.75
2022-11-28T04:22:12.452Z,85.86
2022-11-28T04:23:12.350Z,85.65
2022-11-28T04:24:12.342Z,86.37
2022-11-28T04:25:12.329Z,85.65
2022-11-28T04:26:12.322Z,85.34
2022-11-28T04:27:12.339Z,85.65
2022-11-28T04:28:12.311Z,85.13
2022-11-28T04:29:12.306Z,85.55
2022-11-28T04:30:12.340Z,85.24
2022-11-28T04:31:12.373Z,85.03
2022-11-28T04:32:12.322Z,85.55
2022-11-28T04:33:12.334Z,85.34
2022-11-28T04:34:12.266Z,84.92
2022-11-28T04:35:12.267Z,84.92
2022-11-28T04:36:12.253Z,85.13
2022-11-28T04:37:12.254Z,84.92
2022-11-28T04:38:12.406Z,84.88
2022-11-28T04:39:12.234Z,84.68
2022-11-28T04:40:12.246Z,84.78
2022-11-28T04:41:12.220Z,85.03
2022-11-28T04:42:12.217Z,84.72
2022-11-28T04:43:12.226Z,84.41
2022-11-28T04:44:12.202Z,84.30
2022-11-28T04:45:12.202Z,84.47
2022-11-28T04:46:12.229Z,84.27
2022-11-28T04:47:12.210Z,84.47
2022-11-28T04:48:12.218Z,84.27
2022-11-28T04:49:12.153Z,84.37
2022-11-28T04:50:12.152Z,84.27
2022-11-28T04:51:12.170Z,84.41
2022-11-28T04:52:12.135Z,84.37
2022-11-28T04:53:12.127Z,84.30
2022-11-28T04:54:12.224Z,84.06
2022-11-28T04:55:12.120Z,84.27
2022-11-28T04:56:12.121Z,84.37
2022-11-28T04:57:12.095Z,84.41
2022-11-28T04:58:12.098Z,84.72
2022-11-28T04:59:12.091Z,84.88
2022-11-28T05:00:12.082Z,84.88
2022-11-28T05:01:12.174Z,84.88
2022-11-28T05:02:12.147Z,84.68
2022-11-28T05:03:12.073Z,84.68
2022-11-28T05:04:12.078Z,84.58
2022-11-28T05:05:12.053Z,84.82
2022-11-28T05:06:12.043Z,84.68
2022-11-28T05:07:12.051Z,85.13
2022-11-28T05:08:12.031Z,84.72
2022-11-28T05:09:12.026Z,84.61
2022-11-28T05:10:12.116Z,84.41
2022-11-28T05:11:12.018Z,84.68
2022-11-28T05:12:12.029Z,84.27
2022-11-28T05:13:12.001Z,84.61
2022-11-28T05:14:11.986Z,84.82
2022-11-28T05:15:11.982Z,84.78
2022-11-28T05:16:11.990Z,84.78
2022-11-28T05:17:11.984Z,84.92
2022-11-28T05:18:11.973Z,85.03
2022-11-28T05:19:11.958Z,84.72
2022-11-28T05:20:11.952Z,85.03
2022-11-28T05:21:11.954Z,84.82
2022-11-28T05:22:11.944Z,84.99
2022-11-28T05:23:11.949Z,84.88
2022-11-28T05:24:11.935Z,84.78
2022-11-28T05:25:11.917Z,84.78
2022-11-28T05:26:12.014Z,84.68
2022-11-28T05:27:11.914Z,84.78
2022-11-28T05:28:11.914Z,84.78
2022-11-28T05:29:11.901Z,84.92
2022-11-28T05:30:11.894Z,84.88
2022-11-28T05:31:11.977Z,84.78
2022-11-28T05:32:11.875Z,84.68
2022-11-28T05:33:11.882Z,84.88
2022-11-28T05:34:11.867Z,84.92
2022-11-28T05:35:11.862Z,84.37
2022-11-28T05:36:13.374Z,84.16
2022-11-28T05:37:12.850Z,84.37
2022-11-28T05:38:13.723Z,84.47
2022-11-28T05:39:11.836Z,84.16
2022-11-28T05:40:11.821Z,83.75
2022-11-28T05:41:11.831Z,83.33
2022-11-28T05:42:11.905Z,83.95
2022-11-28T05:43:11.819Z,83.75
2022-11-28T05:44:11.801Z,84.09
2022-11-28T05:45:11.803Z,84.41
2022-11-28T05:46:11.833Z,84.82
2022-11-28T05:47:11.771Z,84.78
2022-11-28T05:48:11.774Z,84.82
2022-11-28T05:49:11.761Z,85.03
2022-11-28T05:50:11.788Z,85.03
2022-11-28T05:51:11.760Z,85.24
2022-11-28T05:52:11.785Z,85.13
2022-11-28T05:53:11.731Z,85.13
2022-11-28T05:54:11.741Z,85.24
2022-11-28T05:55:11.734Z,85.13
2022-11-28T05:56:11.785Z,85.34
2022-11-28T05:57:11.713Z,85.13
2022-11-28T05:58:11.793Z,85.13
2022-11-28T05:59:11.710Z,85.34
2022-11-28T06:00:11.687Z,85.13
2022-11-28T06:01:11.681Z,85.65
2022-11-28T06:02:11.732Z,85.65
2022-11-28T06:03:11.682Z,85.65
2022-11-28T06:04:11.696Z,85.65
2022-11-28T06:05:35.104Z,85.55
2022-11-28T06:06:13.658Z,85.69
2022-11-28T06:07:11.637Z,85.65
2022-11-28T06:08:11.631Z,85.75
2022-11-28T06:09:11.638Z,85.79
2022-11-28T06:10:11.634Z,85.69
2022-11-28T06:11:11.623Z,86.07
2022-11-28T06:12:11.605Z,85.69
2022-11-28T06:13:11.597Z,85.75
2022-11-28T06:14:11.686Z,85.58
2022-11-28T06:15:11.586Z,85.69
2022-11-28T06:16:11.689Z,85.96
2022-11-28T06:17:11.566Z,86.21
2022-11-28T06:18:11.565Z,86.17
2022-11-28T06:19:11.561Z,86.10
2022-11-28T06:20:11.550Z,86.17
2022-11-28T06:21:11.572Z,86.31
2022-11-28T06:22:11.545Z,86.27
2022-11-28T06:23:11.530Z,86.10
2022-11-28T06:24:11.523Z,86.21
2022-11-28T06:25:11.521Z,86.41
2022-11-28T06:26:11.505Z,86.72
2022-11-28T06:27:12.521Z,86.83
2022-11-28T06:28:11.501Z,87.45
2022-11-28T06:29:11.496Z,87.66
2022-11-28T06:30:11.572Z,87.35
2022-11-28T06:31:11.529Z,88.07
2022-11-28T06:32:11.542Z,87.55
2022-11-28T06:33:11.465Z,87.35
2022-11-28T06:34:11.453Z,87.04
2022-11-28T06:35:11.462Z,87.14
2022-11-28T06:36:11.453Z,87.14
2022-11-28T06:37:11.461Z,86.93
2022-11-28T06:38:14.253Z,87.45
2022-11-28T06:39:12.433Z,86.72
2022-11-28T06:40:11.433Z,87.45
2022-11-28T06:41:11.425Z,87.41
2022-11-28T06:42:11.410Z,86.93
2022-11-28T06:43:11.409Z,86.93
2022-11-28T06:44:11.410Z,87.14
2022-11-28T06:45:11.400Z,87.04
2022-11-28T06:46:15.720Z,87.55
2022-11-28T06:47:12.386Z,87.04
2022-11-28T06:48:11.373Z,87.45
2022-11-28T06:49:11.370Z,87.76
2022-11-28T06:50:11.371Z,87.35
2022-11-28T06:51:11.353Z,87.87
2022-11-28T06:52:11.364Z,87.14
2022-11-28T06:53:11.333Z,87.76
2022-11-28T06:54:11.341Z,87.45
2022-11-28T06:55:11.365Z,87.55
2022-11-28T06:56:11.346Z,87.45
2022-11-28T06:57:11.328Z,87.97
2022-11-28T06:58:12.115Z,87.55
2022-11-28T06:59:11.306Z,87.55
2022-11-28T07:00:11.323Z,87.76
2022-11-28T07:01:11.337Z,88.07
2022-11-28T07:02:11.476Z,88.07
2022-11-28T07:03:11.282Z,87.24
2022-11-28T07:04:11.267Z,87.24
2022-11-28T07:05:11.252Z,87.55
2022-11-28T07:06:11.262Z,87.45
2022-11-28T07:07:16.090Z,87.24
2022-11-28T07:08:13.291Z,87.24
2022-11-28T07:09:11.233Z,87.45
2022-11-28T07:10:11.232Z,87.55
2022-11-28T07:11:11.254Z,87.45
2022-11-28T07:12:11.259Z,87.24
2022-11-28T07:13:11.281Z,87.35
2022-11-28T07:14:11.265Z,87.87
2022-11-28T07:15:11.194Z,87.76
2022-11-28T07:16:11.217Z,87.55
2022-11-28T07:17:11.177Z,87.87
2022-11-28T07:18:11.287Z,87.24
2022-11-28T07:19:11.189Z,87.97
2022-11-28T07:20:11.163Z,88.18
2022-11-28T07:21:11.228Z,88.18
2022-11-28T07:22:11.160Z,87.97
2022-11-28T07:23:11.137Z,88.07
2022-11-28T07:24:11.143Z,87.66
2022-11-28T07:25:11.136Z,88.07
2022-11-28T07:26:11.117Z,87.04
2022-11-28T07:27:11.126Z,87.66
2022-11-28T07:28:11.110Z,87.55
2022-11-28T07:29:11.093Z,87.24
2022-11-28T07:30:11.148Z,88.07
2022-11-28T07:31:11.099Z,87.30
2022-11-28T07:32:11.176Z,87.97
2022-11-28T07:33:11.078Z,87.72
2022-11-28T07:34:11.165Z,87.41
2022-11-28T07:35:11.058Z,86.89
2022-11-28T07:36:11.109Z,86.83
2022-11-28T07:37:11.077Z,87.45
2022-11-28T07:38:11.040Z,87.45
2022-11-28T07:39:11.037Z,87.45
2022-11-28T07:40:11.031Z,87.55
2022-11-28T07:41:11.113Z,86.93
2022-11-28T07:42:11.049Z,86.93
2022-11-28T07:43:11.012Z,87.45
2022-11-28T07:44:11.003Z,87.04
2022-11-28T07:45:11.007Z,87.20
2022-11-28T07:46:11.057Z,87.30
2022-11-28T07:47:11.002Z,87.24
2022-11-28T07:48:10.999Z,87.62
2022-11-28T07:49:10.969Z,87.14
2022-11-28T07:50:10.985Z,87.82
2022-11-28T07:51:10.968Z,86.99
2022-11-28T07:52:10.957Z,87.04
2022-11-28T07:53:10.949Z,86.68
2022-11-28T07:54:10.949Z,87.45
2022-11-28T07:55:10.931Z,86.72
2022-11-28T07:56:10.921Z,87.20
2022-11-28T07:57:12.764Z,87.20
2022-11-28T07:58:11.915Z,87.10
2022-11-28T07:59:10.922Z,86.93
2022-11-28T08:00:10.895Z,86.68
2022-11-28T08:01:10.902Z,86.99
2022-11-28T08:02:10.963Z,86.83
2022-11-28T08:03:10.873Z,87.24
2022-11-28T08:04:10.940Z,87.82
2022-11-28T08:05:10.935Z,86.79
2022-11-28T08:06:10.851Z,87.76
2022-11-28T08:07:10.842Z,87.30
2022-11-28T08:08:10.841Z,87.20
2022-11-28T08:09:10.849Z,87.82
2022-11-28T08:10:10.823Z,86.93
2022-11-28T08:11:10.821Z,86.79
2022-11-28T08:12:10.943Z,86.93
2022-11-28T08:13:10.801Z,87.45
2022-11-28T08:14:10.802Z,87.35
2022-11-28T08:15:10.801Z,87.41
2022-11-28T08:16:10.846Z,87.87
2022-11-28T08:17:10.780Z,87.51
2022-11-28T08:18:10.770Z,87.30
2022-11-28T08:19:10.759Z,88.03
2022-11-28T08:20:10.757Z,86.79
2022-11-28T08:21:10.761Z,87.30
2022-11-28T08:22:10.770Z,86.99
2022-11-28T08:23:10.725Z,87.51
2022-11-28T08:24:10.749Z,87.82
2022-11-28T08:25:10.720Z,88.24
2022-11-28T08:26:10.722Z,87.30
2022-11-28T08:27:10.756Z,87.24
2022-11-28T08:28:10.708Z,87.41
2022-11-28T08:29:10.704Z,87.41
2022-11-28T08:30:10.693Z,87.30
2022-11-28T08:31:10.817Z,87.82
2022-11-28T08:32:10.686Z,87.30
2022-11-28T08:33:10.685Z,86.89
2022-11-28T08:34:10.659Z,87.30
2022-11-28T08:35:10.657Z,87.30
2022-11-28T08:36:10.641Z,86.54
2022-11-28T08:37:10.645Z,86.75
2022-11-28T08:38:10.845Z,87.10
2022-11-28T08:39:25.959Z,86.85
2022-11-28T08:40:12.629Z,87.37
2022-11-28T08:41:10.613Z,87.27
2022-11-28T08:42:10.601Z,87.37
2022-11-28T08:43:10.603Z,87.37
2022-11-28T08:44:10.610Z,86.89
2022-11-28T08:45:10.593Z,86.02
2022-11-28T08:46:10.627Z,86.13
2022-11-28T08:47:10.578Z,85.71
2022-11-28T08:48:10.574Z,84.99
2022-11-28T08:49:10.588Z,85.19
2022-11-28T08:50:10.561Z,85.71
2022-11-28T08:51:10.551Z,85.61
2022-11-28T08:52:10.546Z,85.82
2022-11-28T08:53:10.546Z,86.19
2022-11-28T08:54:10.565Z,86.19
2022-11-28T08:55:10.521Z,86.23
2022-11-28T08:56:10.512Z,85.71
2022-11-28T08:57:11.513Z,86.02
2022-11-28T08:58:10.502Z,86.13
2022-11-28T08:59:10.497Z,86.44
2022-11-28T09:00:10.493Z,86.33
2022-11-28T09:01:10.598Z,86.75
2022-11-28T09:02:10.481Z,86.96
2022-11-28T09:03:10.477Z,86.44
2022-11-28T09:04:10.514Z,91.63
2022-11-28T09:05:10.466Z,86.36
2022-11-28T09:06:10.477Z,85.53
2022-11-28T09:07:10.445Z,84.64
2022-11-28T09:08:12.002Z,84.70
2022-11-28T09:09:11.425Z,85.02
2022-11-28T09:10:10.429Z,85.42
2022-11-28T09:11:10.430Z,85.57
2022-11-28T09:12:10.444Z,85.36
2022-11-28T09:13:10.405Z,85.57
2022-11-28T09:14:10.396Z,86.19
2022-11-28T09:15:10.388Z,85.68
2022-11-28T09:16:10.384Z,86.09
2022-11-28T09:17:10.415Z,86.29
2022-11-28T09:18:10.377Z,85.84
2022-11-28T09:19:10.397Z,85.57
2022-11-28T09:20:10.377Z,85.78
2022-11-28T09:21:10.354Z,85.78
2022-11-28T09:22:10.368Z,85.63
2022-11-28T09:23:10.381Z,86.05
2022-11-28T09:24:10.358Z,86.05
2022-11-28T09:25:10.453Z,86.36
2022-11-28T09:26:10.320Z,86.67
2022-11-28T09:27:10.323Z,86.88
2022-11-28T09:28:10.321Z,86.98
2022-11-28T09:29:10.349Z,86.05
2022-11-28T09:30:10.307Z,85.84
2022-11-28T09:31:10.378Z,85.74
2022-11-28T09:32:10.276Z,86.05
2022-11-28T09:33:10.292Z,86.25
2022-11-28T09:34:10.273Z,85.42
2022-11-28T09:35:10.291Z,85.53
2022-11-28T09:36:10.260Z,85.84
2022-11-28T09:37:10.256Z,85.94
2022-11-28T09:38:10.244Z,85.63
2022-11-28T09:39:10.274Z,85.84
2022-11-28T09:40:14.025Z,85.94
2022-11-28T09:41:10.229Z,85.84
2022-11-28T09:42:10.249Z,85.74
2022-11-28T09:43:10.213Z,85.49
2022-11-28T09:44:10.221Z,85.02
2022-11-28T09:45:10.201Z,85.11
2022-11-28T09:46:10.238Z,85.02
2022-11-28T09:47:10.185Z,85.02
2022-11-28T09:48:10.173Z,85.08
2022-11-28T09:49:10.168Z,85.32
2022-11-28T09:50:10.165Z,85.53
2022-11-28T09:51:10.156Z,85.39
2022-11-28T09:52:10.249Z,85.49
2022-11-28T09:53:10.198Z,85.42
2022-11-28T09:54:10.152Z,85.49
2022-11-28T09:55:10.129Z,85.42
2022-11-28T09:56:10.124Z,85.60
2022-11-28T09:57:10.124Z,85.39
2022-11-28T09:58:10.117Z,85.39
2022-11-28T09:59:10.116Z,85.28
2022-11-28T10:00:10.105Z,85.04
2022-11-28T10:01:10.096Z,85.24
2022-11-28T10:02:10.101Z,84.94
2022-11-28T10:03:10.156Z,83.70
2022-11-28T10:04:10.204Z,83.80
2022-11-28T10:05:10.193Z,83.84
2022-11-28T10:06:10.061Z,83.84
2022-11-28T10:07:10.049Z,84.15
2022-11-28T10:08:10.109Z,83.42
2022-11-28T10:09:10.045Z,83.94
2022-11-28T10:10:10.060Z,84.25
2022-11-28T10:11:10.924Z,84.52
2022-11-28T10:12:10.019Z,84.21
2022-11-28T10:13:10.012Z,83.59
2022-11-28T10:14:10.021Z,83.53
2022-11-28T10:15:10.004Z,84.31
2022-11-28T10:16:10.027Z,84.25
2022-11-28T10:17:10.155Z,84.21
2022-11-28T10:18:09.976Z,84.63
2022-11-28T10:19:25.610Z,84.52
2022-11-28T10:20:11.989Z,84.21
2022-11-28T10:21:09.978Z,84.21
2022-11-28T10:22:09.964Z,84.07
2022-11-28T10:23:09.952Z,83.55
2022-11-28T10:24:09.945Z,83.65
2022-11-28T10:25:09.934Z,83.25
2022-11-28T10:26:09.925Z,83.45
2022-11-28T10:27:09.949Z,82.73
2022-11-28T10:28:09.917Z,82.62
2022-11-28T10:29:09.913Z,82.83
2022-11-28T10:30:09.906Z,82.62
2022-11-28T10:31:09.916Z,81.90
2022-11-28T10:32:09.900Z,81.70
2022-11-28T10:33:09.888Z,80.87
2022-11-28T10:34:09.881Z,81.59
2022-11-28T10:35:09.869Z,81.38
2022-11-28T10:36:09.861Z,81.49
2022-11-28T10:37:09.861Z,81.90
2022-11-28T10:38:09.852Z,81.96
2022-11-28T10:39:11.213Z,82.31
2022-11-28T10:40:10.837Z,82.00
2022-11-28T10:41:09.832Z,81.86
2022-11-28T10:42:09.828Z,82.07
2022-11-28T10:43:09.824Z,82.21
2022-11-28T10:44:09.816Z,82.59
2022-11-28T10:45:09.808Z,82.28
2022-11-28T10:46:09.896Z,82.21
2022-11-28T10:47:09.793Z,82.69
2022-11-28T10:48:37.885Z,83.04
2022-11-28T10:49:11.780Z,83.00
2022-11-28T10:50:09.764Z,82.93
2022-11-28T10:51:09.774Z,82.93
2022-11-28T10:52:09.749Z,83.25
2022-11-28T10:53:09.749Z,82.79
2022-11-28T10:54:09.745Z,82.69
2022-11-28T10:55:09.761Z,82.28
2022-11-28T10:56:11.594Z,83.10
2022-11-28T10:57:10.745Z,82.69
2022-11-28T10:58:09.715Z,82.17
2022-11-28T10:59:09.713Z,82.17
2022-11-28T11:00:09.704Z,81.86
2022-11-28T11:01:09.755Z,80.52
2022-11-28T11:02:09.697Z,80.87
2022-11-28T11:03:09.689Z,81.70
2022-11-28T11:04:09.712Z,81.49
2022-11-28T11:05:09.680Z,81.59
2022-11-28T11:06:09.659Z,82.52
2022-11-28T11:07:14.895Z,82.52
2022-11-28T11:08:10.718Z,82.21
2022-11-28T11:09:09.637Z,82.00
2022-11-28T11:10:09.627Z,82.62
2022-11-28T11:11:09.795Z,81.90
2022-11-28T11:12:09.641Z,81.86
2022-11-28T11:13:09.625Z,82.10
2022-11-28T11:14:09.609Z,82.52
2022-11-28T11:15:09.609Z,82.00
2022-11-28T11:16:09.629Z,82.10
2022-11-28T11:17:09.585Z,81.49
2022-11-28T11:18:09.626Z,82.10
2022-11-28T11:19:09.573Z,82.73
2022-11-28T11:20:09.569Z,83.04
2022-11-28T11:21:09.581Z,82.42
2022-11-28T11:22:09.546Z,83.14
2022-11-28T11:23:09.561Z,83.65
2022-11-28T11:24:09.565Z,83.65
2022-11-28T11:25:09.543Z,83.25
2022-11-28T11:26:09.526Z,83.83
2022-11-28T11:27:09.528Z,83.86
2022-11-28T11:28:09.534Z,83.20
2022-11-28T11:29:09.515Z,82.38
2022-11-28T11:30:09.509Z,81.66
2022-11-28T11:31:09.591Z,81.56
2022-11-28T11:32:09.507Z,81.51
2022-11-28T11:33:09.518Z,81.56
2022-11-28T11:34:09.485Z,81.66
2022-11-28T11:35:09.474Z,81.86
2022-11-28T11:36:09.477Z,81.93
2022-11-28T11:37:09.465Z,82.07
2022-11-28T11:38:09.462Z,81.96
2022-11-28T11:39:09.465Z,82.79
2022-11-28T11:40:09.446Z,82.79
2022-11-28T11:41:09.447Z,83.20
2022-11-28T11:42:09.430Z,82.59
2022-11-28T11:43:09.417Z,82.75
2022-11-28T11:44:09.441Z,82.59
2022-11-28T11:45:09.405Z,82.59
2022-11-28T11:46:09.435Z,83.31
2022-11-28T11:47:09.393Z,82.79
2022-11-28T11:48:09.382Z,82.69
2022-11-28T11:49:09.382Z,82.69
2022-11-28T11:50:09.387Z,82.59
2022-11-28T11:51:09.371Z,82.79
2022-11-28T11:52:09.373Z,83.20
2022-11-28T11:53:09.364Z,83.20
2022-11-28T11:54:09.358Z,83.72
2022-11-28T11:55:09.370Z,82.69
2022-11-28T11:56:09.343Z,83.31
2022-11-28T11:57:32.036Z,83.20
2022-11-28T11:58:11.327Z,82.69
2022-11-28T11:59:09.328Z,83.10
2022-11-28T12:00:09.306Z,83.20
2022-11-28T12:01:09.297Z,83.31
2022-11-28T12:02:09.309Z,83.51
2022-11-28T12:03:09.377Z,83.31
2022-11-28T12:04:30.610Z,82.89
2022-11-28T12:05:11.265Z,83.62
2022-11-28T12:06:16.330Z,82.69
2022-11-28T12:07:10.253Z,82.69
2022-11-28T12:08:09.249Z,82.93
2022-11-28T12:09:09.251Z,83.72
2022-11-28T12:10:09.254Z,83.10
2022-11-28T12:11:09.252Z,82.69
2022-11-28T12:12:09.257Z,82.48
2022-11-28T12:13:09.244Z,82.07
2022-11-28T12:14:09.201Z,82.69
2022-11-28T12:15:09.209Z,82.79
2022-11-28T12:16:09.264Z,82.79
2022-11-28T12:17:32.711Z,83.10
2022-11-28T12:18:11.189Z,82.79
2022-11-28T12:19:09.181Z,82.59
2022-11-28T12:20:09.169Z,82.89
2022-11-28T12:21:09.168Z,82.89
2022-11-28T12:22:09.201Z,83.41
2022-11-28T12:23:13.030Z,83.41
2022-11-28T12:24:11.160Z,83.31
2022-11-28T12:25:09.146Z,83.31
2022-11-28T12:26:09.142Z,83.41
2022-11-28T12:27:09.141Z,83.31
2022-11-28T12:28:09.121Z,82.79
2022-11-28T12:29:09.552Z,83.20
2022-11-28T12:30:09.111Z,83.41
2022-11-28T12:31:09.159Z,83.83
2022-11-28T12:32:09.118Z,83.41
2022-11-28T12:33:09.174Z,83.00
2022-11-28T12:34:09.073Z,83.27
2022-11-28T12:35:09.073Z,83.27
2022-11-28T12:36:09.065Z,83.31
2022-11-28T12:37:09.092Z,83.72
2022-11-28T12:38:11.388Z,83.93
2022-11-28T12:39:09.062Z,84.03
2022-11-28T12:40:09.042Z,84.23
2022-11-28T12:41:09.032Z,84.03
2022-11-28T12:42:09.023Z,84.03
2022-11-28T12:43:09.038Z,84.55
2022-11-28T12:44:09.025Z,84.65
2022-11-28T12:45:09.018Z,84.44
2022-11-28T12:46:09.044Z,84.61
2022-11-28T12:47:08.987Z,83.68
2022-11-28T12:48:09.007Z,83.17
2022-11-28T12:49:08.969Z,83.58
2022-11-28T12:50:08.987Z,82.96
2022-11-28T12:51:08.975Z,82.55
2022-11-28T12:52:08.962Z,82.96